createdAt,value
2023-01-30T00:01:37.477Z,46.13
2023-01-30T00:03:42.640Z,46.02
2023-01-30T00:05:47.359Z,46.06
2023-01-30T00:07:52.177Z,45.97
2023-01-30T00:09:56.873Z,45.90
2023-01-30T00:12:01.687Z,46.13
2023-01-30T00:14:06.399Z,46.21
2023-01-30T00:16:12.321Z,46.27
2023-01-30T00:18:19.808Z,46.23
2023-01-30T00:20:24.512Z,46.28
2023-01-30T00:22:29.253Z,46.32
2023-01-30T00:24:34.089Z,46.48
2023-01-30T00:26:38.942Z,46.47
2023-01-30T00:28:43.776Z,46.21
2023-01-30T00:30:51.740Z,46.44
2023-01-30T00:33:00.652Z,46.68
2023-01-30T00:35:09.459Z,46.73
2023-01-30T00:37:14.197Z,46.73
2023-01-30T00:39:19.237Z,46.58
2023-01-30T00:41:24.193Z,46.95
2023-01-30T00:43:41.293Z,46.73
2023-01-30T00:46:00.433Z,46.91
2023-01-30T00:48:05.160Z,46.72
2023-01-30T00:50:13.554Z,46.90
2023-01-30T00:52:18.315Z,47.06
2023-01-30T00:54:23.164Z,47.03
2023-01-30T00:56:29.498Z,47.04
2023-01-30T00:58:35.385Z,47.03
2023-01-30T01:00:41.620Z,46.93
2023-01-30T01:02:46.447Z,47.28
2023-01-30T01:04:51.241Z,47.01
2023-01-30T01:06:58.631Z,47.10
2023-01-30T01:09:03.300Z,47.14
2023-01-30T01:11:07.965Z,47.05
2023-01-30T01:13:13.121Z,47.13
2023-01-30T01:15:18.164Z,47.23
2023-01-30T01:17:23.112Z,47.20
2023-01-30T01:19:28.464Z,46.97
2023-01-30T01:21:33.214Z,47.14
2023-01-30T01:23:40.523Z,46.97
2023-01-30T01:25:45.180Z,47.24
2023-01-30T01:27:50.284Z,47.06
2023-01-30T01:29:54.973Z,47.26
2023-01-30T01:32:01.037Z,47.10
2023-01-30T01:34:05.825Z,47.05
2023-01-30T01:36:16.226Z,47.32
2023-01-30T01:38:24.603Z,47.17
2023-01-30T01:40:44.393Z,47.26
2023-01-30T01:42:49.112Z,47.26
2023-01-30T01:45:18.939Z,47.65
2023-01-30T01:47:24.962Z,47.38
2023-01-30T01:49:34.844Z,47.57
2023-01-30T01:51:43.075Z,47.47
2023-01-30T01:53:54.870Z,47.43
2023-01-30T01:56:04.748Z,47.46
2023-01-30T01:58:13.549Z,47.31
2023-01-30T02:00:22.277Z,47.40
2023-01-30T02:02:27.057Z,47.53
2023-01-30T02:04:47.324Z,47.61
2023-01-30T02:06:52.121Z,47.36
2023-01-30T02:09:01.182Z,47.40
2023-01-30T02:11:13.502Z,47.44
2023-01-30T02:13:18.337Z,47.37
2023-01-30T02:15:23.131Z,47.54
2023-01-30T02:17:28.010Z,47.40
2023-01-30T02:19:43.955Z,47.56
2023-01-30T02:22:30.044Z,47.44
2023-01-30T02:25:17.634Z,47.50
2023-01-30T02:27:53.060Z,47.28
2023-01-30T02:30:28.679Z,47.25
2023-01-30T02:32:41.602Z,47.49
2023-01-30T02:34:54.719Z,47.47
2023-01-30T02:37:11.523Z,47.28
2023-01-30T02:39:27.859Z,47.38
2023-01-30T02:41:39.739Z,47.54
2023-01-30T02:43:49.488Z,47.70
2023-01-30T02:45:59.896Z,47.52
2023-01-30T02:48:10.359Z,47.32
2023-01-30T02:50:20.348Z,47.65
2023-01-30T02:52:27.035Z,47.51
2023-01-30T02:54:32.036Z,47.39
2023-01-30T02:56:48.564Z,47.47
2023-01-30T02:58:59.137Z,47.54
2023-01-30T03:01:23.790Z,47.57
2023-01-30T03:03:51.500Z,47.55
2023-01-30T03:06:16.971Z,47.54
2023-01-30T03:08:33.617Z,47.32
2023-01-30T03:10:44.700Z,47.58
2023-01-30T03:12:54.787Z,47.46
2023-01-30T03:15:05.936Z,47.32
2023-01-30T03:17:13.034Z,47.58
2023-01-30T03:19:22.896Z,47.51
2023-01-30T03:21:27.686Z,47.57
2023-01-30T03:23:32.445Z,47.50
2023-01-30T03:25:38.908Z,47.40
2023-01-30T03:27:43.708Z,47.48
2023-01-30T03:29:48.739Z,47.41
2023-01-30T03:31:53.901Z,47.54
2023-01-30T03:33:58.717Z,47.72
2023-01-30T03:36:06.459Z,47.53
2023-01-30T03:38:11.484Z,47.68
2023-01-30T03:40:18.612Z,47.38
2023-01-30T03:42:24.131Z,47.54
2023-01-30T03:44:28.932Z,47.50
2023-01-30T03:46:33.803Z,47.46
2023-01-30T03:48:38.481Z,47.49
2023-01-30T03:50:43.287Z,47.72
2023-01-30T03:52:50.880Z,47.52
2023-01-30T03:54:58.265Z,47.62
2023-01-30T03:57:02.976Z,47.74
2023-01-30T03:59:07.724Z,47.87
2023-01-30T04:01:18.311Z,47.84
2023-01-30T04:03:23.101Z,47.82
2023-01-30T04:05:29.307Z,47.66
2023-01-30T04:07:40.285Z,47.72
2023-01-30T04:09:49.491Z,47.70
2023-01-30T04:11:55.875Z,47.74
2023-01-30T04:14:00.916Z,47.77
2023-01-30T04:16:21.367Z,47.80
2023-01-30T04:19:01.318Z,47.79
2023-01-30T04:21:09.858Z,47.52
2023-01-30T04:23:17.309Z,47.61
2023-01-30T04:25:24.833Z,47.45
2023-01-30T04:27:30.728Z,47.74
2023-01-30T04:29:50.981Z,47.63
2023-01-30T04:31:55.774Z,47.79
2023-01-30T04:34:04.077Z,47.70
2023-01-30T04:36:11.219Z,47.71
2023-01-30T04:38:16.593Z,47.84
2023-01-30T04:40:24.125Z,47.94
2023-01-30T04:42:28.948Z,47.84
2023-01-30T04:44:53.963Z,47.77
2023-01-30T04:47:04.773Z,47.82
2023-01-30T04:49:09.800Z,47.74
2023-01-30T04:51:14.787Z,47.89
2023-01-30T04:53:21.611Z,47.98
2023-01-30T04:55:29.079Z,47.88
2023-01-30T04:57:33.817Z,48.01
2023-01-30T04:59:38.577Z,48.11
2023-01-30T05:01:47.593Z,48.16
2023-01-30T05:03:54.020Z,48.20
2023-01-30T05:05:58.724Z,48.30
2023-01-30T05:08:03.744Z,48.14
2023-01-30T05:10:09.945Z,48.19
2023-01-30T05:12:17.215Z,48.40
2023-01-30T05:14:21.879Z,48.25
2023-01-30T05:16:27.162Z,48.25
2023-01-30T05:18:31.850Z,48.47
2023-01-30T05:20:36.752Z,48.23
2023-01-30T05:22:41.401Z,48.31
2023-01-30T05:24:46.170Z,48.46
2023-01-30T05:26:50.848Z,48.54
2023-01-30T05:29:00.439Z,48.27
2023-01-30T05:31:05.900Z,48.28
2023-01-30T05:33:10.631Z,48.59
2023-01-30T05:35:15.405Z,48.36
2023-01-30T05:37:20.180Z,48.35
2023-01-30T05:39:24.841Z,48.52
2023-01-30T05:41:29.649Z,48.65
2023-01-30T05:43:35.451Z,48.41
2023-01-30T05:45:43.000Z,48.42
2023-01-30T05:47:47.724Z,48.43
2023-01-30T05:49:52.474Z,48.68
2023-01-30T05:51:57.096Z,48.69
2023-01-30T05:54:02.016Z,48.61
2023-01-30T05:56:08.534Z,48.77
2023-01-30T05:58:13.242Z,48.56
2023-01-30T06:00:18.964Z,48.85
2023-01-30T06:02:26.331Z,48.83
2023-01-30T06:04:30.989Z,48.59
2023-01-30T06:06:35.651Z,48.71
2023-01-30T06:08:40.408Z,48.71
2023-01-30T06:10:45.287Z,48.63
2023-01-30T06:12:49.939Z,48.50
2023-01-30T06:14:54.596Z,48.40
2023-01-30T06:16:59.424Z,48.50
2023-01-30T06:19:06.777Z,48.38
2023-01-30T06:21:12.576Z,48.53
2023-01-30T06:23:18.054Z,48.63
2023-01-30T06:25:22.894Z,48.58
2023-01-30T06:27:27.573Z,48.70
2023-01-30T06:29:32.473Z,48.51
2023-01-30T06:31:37.258Z,48.50
2023-01-30T06:33:41.951Z,48.53
2023-01-30T06:35:52.258Z,48.61
2023-01-30T06:37:57.012Z,48.53
2023-01-30T06:40:01.674Z,48.84
2023-01-30T06:42:07.278Z,48.56
2023-01-30T06:44:12.263Z,48.61
2023-01-30T06:46:17.040Z,48.61
2023-01-30T06:48:21.840Z,48.71
2023-01-30T06:50:28.717Z,48.55
2023-01-30T06:52:36.117Z,48.55
2023-01-30T06:54:40.739Z,48.50
2023-01-30T06:56:45.451Z,48.74
2023-01-30T06:58:50.151Z,48.77
2023-01-30T07:00:55.170Z,48.51
2023-01-30T07:03:00.019Z,48.67
2023-01-30T07:05:05.356Z,48.26
2023-01-30T07:07:10.021Z,48.24
2023-01-30T07:09:17.436Z,48.26
2023-01-30T07:11:22.141Z,48.17
2023-01-30T07:13:26.817Z,47.97
2023-01-30T07:15:32.352Z,48.23
2023-01-30T07:17:39.367Z,47.94
2023-01-30T07:19:44.046Z,47.92
2023-01-30T07:21:48.750Z,47.98
2023-01-30T07:23:53.462Z,47.99
2023-01-30T07:26:01.067Z,47.92
2023-01-30T07:28:06.043Z,47.65
2023-01-30T07:30:12.472Z,47.66
2023-01-30T07:32:19.939Z,47.71
2023-01-30T07:34:24.837Z,47.67
2023-01-30T07:36:29.677Z,47.71
2023-01-30T07:38:34.338Z,47.47
2023-01-30T07:40:39.353Z,47.51
2023-01-30T07:42:46.989Z,47.40
2023-01-30T07:44:52.062Z,47.65
2023-01-30T07:46:57.023Z,47.55
2023-01-30T07:49:02.047Z,47.45
2023-01-30T07:51:07.512Z,47.49
2023-01-30T07:53:14.781Z,47.44
2023-01-30T07:55:20.263Z,47.31
2023-01-30T07:57:25.108Z,47.31
2023-01-30T07:59:33.140Z,47.39
2023-01-30T08:01:37.928Z,47.22
2023-01-30T08:03:43.865Z,47.41
2023-01-30T08:05:50.162Z,47.09
2023-01-30T08:07:55.471Z,47.20
2023-01-30T08:10:00.094Z,47.47
2023-01-30T08:12:04.845Z,47.21
2023-01-30T08:14:09.599Z,46.99
2023-01-30T08:16:17.123Z,47.12
2023-01-30T08:18:22.210Z,46.82
2023-01-30T08:20:27.850Z,46.85
2023-01-30T08:22:32.740Z,46.50
2023-01-30T08:24:37.779Z,46.69
2023-01-30T08:26:42.666Z,46.53
2023-01-30T08:28:47.675Z,46.46
2023-01-30T08:30:53.462Z,46.53
2023-01-30T08:33:01.391Z,46.35
2023-01-30T08:35:06.127Z,46.26
2023-01-30T08:37:10.952Z,46.22
2023-01-30T08:39:16.848Z,46.18
2023-01-30T08:41:21.725Z,46.18
2023-01-30T08:43:26.909Z,46.14
2023-01-30T08:45:32.011Z,46.27
2023-01-30T08:47:36.728Z,45.96
2023-01-30T08:49:44.176Z,46.10
2023-01-30T08:51:49.157Z,46.09
2023-01-30T08:53:53.853Z,45.97
2023-01-30T08:55:58.513Z,45.80
2023-01-30T08:58:03.566Z,46.11
2023-01-30T09:00:09.730Z,45.72
2023-01-30T09:02:15.793Z,45.77
2023-01-30T09:04:20.724Z,45.50
2023-01-30T09:06:28.248Z,45.47
2023-01-30T09:08:33.364Z,45.75
2023-01-30T09:10:38.736Z,45.52
2023-01-30T09:12:43.380Z,45.48
2023-01-30T09:14:48.182Z,45.45
2023-01-30T09:16:55.875Z,45.51
2023-01-30T09:19:00.710Z,45.43
2023-01-30T09:21:06.368Z,45.69
2023-01-30T09:23:13.718Z,45.63
2023-01-30T09:25:18.613Z,45.51
2023-01-30T09:27:23.383Z,45.72
2023-01-30T09:29:28.789Z,45.35
2023-01-30T09:31:33.768Z,45.31
2023-01-30T09:33:38.623Z,45.37
2023-01-30T09:35:43.424Z,45.50
2023-01-30T09:37:51.235Z,45.49
2023-01-30T09:39:58.649Z,45.54
2023-01-30T09:42:26.028Z,45.68
2023-01-30T09:45:04.875Z,45.61
2023-01-30T09:47:14.608Z,45.74
2023-01-30T09:49:33.583Z,45.85
2023-01-30T09:51:46.779Z,45.79
2023-01-30T09:54:17.701Z,45.56
2023-01-30T09:56:25.545Z,45.66
2023-01-30T09:58:40.881Z,45.46
2023-01-30T10:00:46.901Z,45.49
2023-01-30T10:02:58.463Z,45.41
2023-01-30T10:05:03.654Z,45.67
2023-01-30T10:07:19.824Z,45.56
2023-01-30T10:09:33.013Z,45.34
2023-01-30T10:11:55.530Z,45.37
2023-01-30T10:14:29.001Z,45.52
2023-01-30T10:16:40.578Z,45.42
2023-01-30T10:18:58.822Z,45.19
2023-01-30T10:21:18.549Z,45.19
2023-01-30T10:23:44.648Z,45.06
2023-01-30T10:25:53.288Z,45.28
2023-01-30T10:28:05.548Z,45.02
2023-01-30T10:30:17.474Z,45.11
2023-01-30T10:32:29.005Z,45.03
2023-01-30T10:34:37.337Z,45.00
2023-01-30T10:36:46.665Z,44.87
2023-01-30T10:38:53.806Z,44.88
2023-01-30T10:41:04.872Z,45.01
2023-01-30T10:43:19.911Z,45.06
2023-01-30T10:45:36.530Z,45.01
2023-01-30T10:47:59.859Z,44.84
2023-01-30T10:50:17.621Z,44.82
2023-01-30T10:52:51.762Z,45.00
2023-01-30T10:55:03.189Z,45.05
2023-01-30T10:57:20.553Z,44.94
2023-01-30T10:59:43.600Z,44.89
2023-01-30T11:01:54.883Z,44.78
2023-01-30T11:04:07.223Z,45.02
2023-01-30T11:06:18.389Z,45.08
2023-01-30T11:08:28.884Z,45.15
2023-01-30T11:10:34.113Z,45.08
2023-01-30T11:12:40.537Z,45.01
2023-01-30T11:15:00.132Z,44.99
2023-01-30T11:17:05.131Z,44.87
2023-01-30T11:19:25.450Z,45.06
2023-01-30T11:21:43.391Z,44.96
2023-01-30T11:23:48.393Z,45.00
2023-01-30T11:26:10.343Z,44.74
2023-01-30T11:28:19.646Z,44.83
2023-01-30T11:30:32.042Z,44.72
2023-01-30T11:32:37.586Z,44.90
2023-01-30T11:34:44.971Z,44.69
2023-01-30T11:36:51.517Z,44.92
2023-01-30T11:39:01.389Z,44.84
2023-01-30T11:41:21.097Z,44.71
2023-01-30T11:43:28.501Z,44.43
2023-01-30T11:45:40.801Z,44.51
2023-01-30T11:48:04.723Z,44.88
2023-01-30T11:50:22.717Z,44.66
2023-01-30T11:52:32.721Z,44.79
2023-01-30T11:54:40.817Z,44.53
2023-01-30T11:56:51.808Z,44.47
2023-01-30T11:59:00.998Z,44.71
2023-01-30T12:01:10.820Z,44.68
2023-01-30T12:03:21.736Z,44.68
2023-01-30T12:05:34.659Z,44.63
2023-01-30T12:07:40.344Z,44.78
2023-01-30T12:09:45.560Z,44.53
2023-01-30T12:11:50.289Z,44.74
2023-01-30T12:13:58.027Z,44.74
2023-01-30T12:16:20.762Z,44.64
2023-01-30T12:18:32.887Z,45.03
2023-01-30T12:20:52.105Z,44.82
2023-01-30T12:23:08.470Z,44.74
2023-01-30T12:25:19.049Z,44.95
2023-01-30T12:27:31.144Z,45.11
2023-01-30T12:29:40.912Z,44.92
2023-01-30T12:31:52.586Z,45.01
2023-01-30T12:33:57.522Z,44.82
2023-01-30T12:36:20.658Z,45.05
2023-01-30T12:38:36.627Z,44.95
2023-01-30T12:40:50.615Z,44.94
2023-01-30T12:43:24.137Z,45.05
2023-01-30T12:45:30.880Z,45.18
2023-01-30T12:47:52.358Z,45.21
2023-01-30T12:50:21.526Z,44.96
2023-01-30T12:52:42.917Z,45.01
2023-01-30T12:54:59.823Z,45.18
2023-01-30T12:57:15.767Z,44.96
2023-01-30T12:59:28.390Z,45.13
2023-01-30T13:01:44.502Z,45.24
2023-01-30T13:03:58.154Z,45.12
2023-01-30T13:06:11.418Z,45.24
2023-01-30T13:08:29.012Z,45.17
2023-01-30T13:10:40.701Z,44.92
2023-01-30T13:12:51.986Z,44.89
2023-01-30T13:15:06.130Z,44.92
2023-01-30T13:17:29.357Z,45.12
2023-01-30T13:19:45.388Z,44.92
2023-01-30T13:21:57.968Z,44.98
2023-01-30T13:24:17.201Z,45.01
2023-01-30T13:26:25.774Z,44.77
2023-01-30T13:28:36.399Z,44.97
2023-01-30T13:30:43.288Z,44.74
2023-01-30T13:32:51.016Z,44.75
2023-01-30T13:35:00.927Z,45.06
2023-01-30T13:37:10.060Z,45.12
2023-01-30T13:39:20.918Z,44.83
2023-01-30T13:41:27.199Z,44.92
2023-01-30T13:43:37.043Z,44.69
2023-01-30T13:45:47.943Z,44.86
2023-01-30T13:48:04.219Z,44.90
2023-01-30T13:50:37.311Z,44.93
2023-01-30T13:52:49.632Z,45.04
2023-01-30T13:55:02.408Z,44.87
2023-01-30T13:57:16.963Z,44.98
2023-01-30T13:59:33.556Z,44.88
2023-01-30T14:02:10.480Z,45.00
2023-01-30T14:04:45.228Z,45.23
2023-01-30T14:06:52.722Z,44.96
2023-01-30T14:08:59.499Z,45.25
2023-01-30T14:11:04.992Z,45.26
2023-01-30T14:13:09.687Z,44.99
2023-01-30T14:15:31.884Z,45.12
2023-01-30T14:17:36.710Z,45.07
2023-01-30T14:19:44.993Z,45.17
2023-01-30T14:22:01.080Z,45.24
2023-01-30T14:24:08.076Z,45.12
2023-01-30T14:26:12.764Z,44.94
2023-01-30T14:28:50.905Z,45.08
2023-01-30T14:30:58.899Z,45.33
2023-01-30T14:33:05.080Z,45.24
2023-01-30T14:35:27.081Z,45.20
2023-01-30T14:38:11.596Z,45.25
2023-01-30T14:40:32.987Z,45.46
2023-01-30T14:42:37.636Z,45.42
2023-01-30T14:44:58.224Z,45.39
2023-01-30T14:47:35.226Z,45.37
2023-01-30T14:49:35.839Z,45.48
2023-01-30T14:51:47.997Z,45.35
2023-01-30T14:53:58.789Z,45.76
2023-01-30T14:56:05.924Z,45.61
2023-01-30T14:58:21.272Z,45.60
2023-01-30T15:00:30.471Z,45.60
2023-01-30T15:02:43.674Z,45.52
2023-01-30T15:04:50.216Z,45.98
2023-01-30T15:06:55.427Z,45.69
2023-01-30T15:09:02.677Z,45.79
2023-01-30T15:11:15.162Z,45.96
2023-01-30T15:13:31.901Z,45.99
2023-01-30T15:15:49.515Z,46.01
2023-01-30T15:18:10.205Z,46.21
2023-01-30T15:20:29.202Z,46.15
2023-01-30T15:22:41.953Z,46.27
2023-01-30T15:25:15.774Z,46.26
2023-01-30T15:27:27.584Z,46.33
2023-01-30T15:30:06.630Z,46.37
2023-01-30T15:32:20.027Z,46.52
2023-01-30T15:34:25.024Z,46.27
2023-01-30T15:36:36.403Z,46.32
2023-01-30T15:38:41.273Z,46.17
2023-01-30T15:40:48.767Z,46.43
2023-01-30T15:42:58.296Z,46.51
2023-01-30T15:45:09.527Z,46.42
2023-01-30T15:47:29.683Z,46.48
2023-01-30T15:49:55.692Z,46.87
2023-01-30T15:52:05.559Z,46.72
2023-01-30T15:54:13.575Z,46.45
2023-01-30T15:56:25.484Z,46.60
2023-01-30T15:58:31.672Z,46.63
2023-01-30T16:00:39.064Z,46.83
2023-01-30T16:02:45.844Z,46.71
2023-01-30T16:04:51.269Z,46.66
2023-01-30T16:06:56.271Z,46.61
2023-01-30T16:09:03.935Z,46.59
2023-01-30T16:11:08.720Z,46.76
2023-01-30T16:13:16.098Z,46.91
2023-01-30T16:15:28.114Z,46.50
2023-01-30T16:17:34.690Z,46.97
2023-01-30T16:19:41.381Z,46.73
2023-01-30T16:21:49.215Z,46.63
2023-01-30T16:23:59.146Z,46.73
2023-01-30T16:26:05.180Z,46.74
2023-01-30T16:28:09.852Z,46.75
2023-01-30T16:30:24.277Z,46.78
2023-01-30T16:32:33.814Z,46.69
2023-01-30T16:34:40.890Z,46.86
2023-01-30T16:36:45.602Z,46.74
2023-01-30T16:38:51.893Z,46.64
2023-01-30T16:40:57.735Z,46.83
2023-01-30T16:43:03.923Z,46.57
2023-01-30T16:45:53.254Z,46.97
2023-01-30T16:47:57.977Z,46.83
2023-01-30T16:50:03.717Z,46.84
2023-01-30T16:52:20.117Z,46.77
2023-01-30T16:54:28.056Z,47.00
2023-01-30T16:56:36.246Z,46.61
2023-01-30T16:58:41.613Z,46.63
2023-01-30T17:00:53.845Z,46.82
2023-01-30T17:03:01.156Z,46.66
2023-01-30T17:05:23.078Z,46.83
2023-01-30T17:07:37.399Z,46.74
2023-01-30T17:09:48.621Z,46.71
2023-01-30T17:11:53.303Z,46.63
2023-01-30T17:14:13.584Z,46.66
2023-01-30T17:16:33.875Z,46.96
2023-01-30T17:18:38.598Z,46.89
2023-01-30T17:20:51.306Z,46.82
2023-01-30T17:22:58.926Z,46.82
2023-01-30T17:25:06.863Z,46.83
2023-01-30T17:27:11.771Z,46.90
2023-01-30T17:29:28.820Z,46.84
2023-01-30T17:31:36.543Z,46.93
2023-01-30T17:33:41.293Z,47.24
2023-01-30T17:35:47.333Z,47.35
2023-01-30T17:38:04.426Z,47.05
2023-01-30T17:40:19.097Z,47.36
2023-01-30T17:42:23.920Z,46.95
2023-01-30T17:44:28.918Z,47.00
2023-01-30T17:46:40.213Z,47.08
2023-01-30T17:48:45.712Z,47.24
2023-01-30T17:50:50.680Z,47.05
2023-01-30T17:52:55.437Z,47.06
2023-01-30T17:55:00.145Z,46.97
2023-01-30T17:57:09.811Z,46.92
2023-01-30T17:59:17.773Z,47.02
2023-01-30T18:01:23.057Z,47.04
2023-01-30T18:03:30.531Z,47.17
2023-01-30T18:05:36.185Z,47.02
2023-01-30T18:07:42.716Z,47.12
2023-01-30T18:09:47.772Z,47.01
2023-01-30T18:11:53.822Z,47.14
2023-01-30T18:13:58.585Z,47.09
2023-01-30T18:16:03.998Z,46.76
2023-01-30T18:18:13.288Z,46.99
2023-01-30T18:20:22.681Z,46.98
2023-01-30T18:22:27.400Z,47.07
2023-01-30T18:24:32.028Z,46.93
2023-01-30T18:26:36.904Z,46.92
2023-01-30T18:28:44.022Z,46.83
2023-01-30T18:30:48.889Z,46.83
2023-01-30T18:32:54.174Z,46.82
2023-01-30T18:34:58.958Z,46.83
2023-01-30T18:37:06.222Z,47.02
2023-01-30T18:39:11.358Z,46.76
2023-01-30T18:41:19.185Z,46.79
2023-01-30T18:43:24.012Z,46.82
2023-01-30T18:45:28.728Z,46.88
2023-01-30T18:47:33.413Z,47.05
2023-01-30T18:49:38.038Z,46.74
2023-01-30T18:51:42.822Z,47.07
2023-01-30T18:53:52.196Z,47.13
2023-01-30T18:55:56.868Z,47.12
2023-01-30T18:58:01.834Z,47.17
2023-01-30T19:00:07.501Z,46.95
2023-01-30T19:02:14.320Z,47.03
2023-01-30T19:04:19.041Z,46.80
2023-01-30T19:06:23.879Z,47.00
2023-01-30T19:08:28.651Z,46.82
2023-01-30T19:10:35.947Z,46.82
2023-01-30T19:12:53.087Z,46.88
2023-01-30T19:14:58.225Z,46.99
2023-01-30T19:17:03.179Z,47.06
2023-01-30T19:19:08.930Z,46.97
2023-01-30T19:21:13.602Z,46.85
2023-01-30T19:23:18.242Z,46.86
2023-01-30T19:25:23.659Z,46.85
2023-01-30T19:27:30.936Z,47.10
2023-01-30T19:29:35.726Z,47.13
2023-01-30T19:31:40.714Z,47.00
2023-01-30T19:33:47.194Z,46.90
2023-01-30T19:35:52.432Z,47.02
2023-01-30T19:38:00.403Z,46.85
2023-01-30T19:40:09.043Z,46.94
2023-01-30T19:42:14.447Z,47.09
2023-01-30T19:44:21.742Z,46.96
2023-01-30T19:46:28.876Z,46.91
2023-01-30T19:48:33.590Z,47.21
2023-01-30T19:50:38.623Z,47.06
2023-01-30T19:52:43.899Z,47.23
2023-01-30T19:54:50.135Z,47.13
2023-01-30T19:56:54.805Z,47.13
2023-01-30T19:59:05.574Z,46.93
2023-01-30T20:01:17.601Z,47.21
2023-01-30T20:03:22.337Z,47.09
2023-01-30T20:05:27.156Z,47.08
2023-01-30T20:07:31.844Z,47.38
2023-01-30T20:09:36.543Z,47.35
2023-01-30T20:11:44.529Z,47.20
2023-01-30T20:13:49.220Z,47.27
2023-01-30T20:15:54.782Z,47.12
2023-01-30T20:18:02.035Z,47.14
2023-01-30T20:20:07.540Z,47.24
2023-01-30T20:22:12.337Z,47.08
2023-01-30T20:24:17.687Z,47.01
2023-01-30T20:26:23.884Z,47.00
2023-01-30T20:28:28.631Z,47.01
2023-01-30T20:30:33.368Z,47.11
2023-01-30T20:32:38.154Z,46.85
2023-01-30T20:34:45.429Z,46.99
2023-01-30T20:36:50.593Z,46.83
2023-01-30T20:38:55.807Z,47.03
2023-01-30T20:41:05.116Z,46.92
2023-01-30T20:43:09.979Z,47.02
2023-01-30T20:45:14.806Z,47.10
2023-01-30T20:47:19.623Z,47.13
2023-01-30T20:49:26.471Z,47.09
2023-01-30T20:51:35.419Z,47.01
2023-01-30T20:53:41.231Z,47.10
2023-01-30T20:55:45.909Z,47.03
2023-01-30T20:57:50.684Z,46.78
2023-01-30T20:59:55.420Z,47.07
2023-01-30T21:02:00.280Z,47.14
2023-01-30T21:04:08.892Z,47.00
2023-01-30T21:06:14.576Z,46.92
2023-01-30T21:08:43.305Z,46.93
2023-01-30T21:10:48.151Z,47.05
2023-01-30T21:12:53.043Z,47.17
2023-01-30T21:14:57.723Z,47.05
2023-01-30T21:17:02.507Z,47.10
2023-01-30T21:19:09.191Z,47.21
2023-01-30T21:21:19.854Z,47.05
2023-01-30T21:23:24.720Z,46.96
2023-01-30T21:25:32.230Z,47.05
2023-01-30T21:27:39.777Z,46.86
2023-01-30T21:29:45.307Z,46.95
2023-01-30T21:31:50.443Z,47.12
2023-01-30T21:33:55.445Z,47.00
2023-01-30T21:36:01.464Z,46.91
2023-01-30T21:38:18.723Z,46.93
2023-01-30T21:40:35.945Z,46.97
2023-01-30T21:42:55.911Z,47.07
2023-01-30T21:45:01.421Z,46.96
2023-01-30T21:47:06.817Z,47.04
2023-01-30T21:49:11.768Z,46.92
2023-01-30T21:51:16.466Z,46.84
2023-01-30T21:53:21.605Z,46.75
2023-01-30T21:55:26.267Z,46.93
2023-01-30T21:57:31.055Z,46.69
2023-01-30T21:59:38.941Z,46.74
2023-01-30T22:01:44.350Z,46.64
2023-01-30T22:03:49.269Z,46.60
2023-01-30T22:05:54.473Z,46.71
2023-01-30T22:07:59.349Z,46.81
2023-01-30T22:10:04.199Z,46.94
2023-01-30T22:12:08.981Z,46.95
2023-01-30T22:14:15.448Z,46.84
2023-01-30T22:16:25.687Z,46.83
2023-01-30T22:18:30.453Z,47.02
2023-01-30T22:20:35.422Z,46.95
2023-01-30T22:22:40.068Z,46.92
2023-01-30T22:24:44.736Z,47.02
2023-01-30T22:26:49.554Z,46.86
2023-01-30T22:28:56.426Z,46.71
2023-01-30T22:31:05.468Z,46.71
2023-01-30T22:33:12.755Z,46.93
2023-01-30T22:35:17.982Z,46.77
2023-01-30T22:37:22.912Z,46.86
2023-01-30T22:39:27.854Z,46.80
2023-01-30T22:41:35.253Z,46.81
2023-01-30T22:43:40.236Z,46.83
2023-01-30T22:45:44.924Z,46.87
2023-01-30T22:47:49.621Z,46.94
2023-01-30T22:49:57.088Z,47.00
2023-01-30T22:52:01.999Z,47.03
2023-01-30T22:54:08.652Z,47.00
2023-01-30T22:56:15.620Z,47.02
2023-01-30T22:58:20.259Z,46.84
2023-01-30T23:00:25.067Z,47.08
2023-01-30T23:02:29.813Z,46.93
2023-01-30T23:04:34.740Z,46.77
2023-01-30T23:06:42.326Z,46.95
2023-01-30T23:08:49.272Z,47.06
2023-01-30T23:10:54.705Z,46.93
2023-01-30T23:13:08.856Z,46.70
2023-01-30T23:15:13.932Z,46.71
2023-01-30T23:17:31.107Z,46.69
2023-01-30T23:19:35.891Z,46.96
2023-01-30T23:21:44.648Z,46.83
2023-01-30T23:23:49.451Z,46.62
2023-01-30T23:25:54.101Z,46.80
2023-01-30T23:28:00.037Z,46.66
2023-01-30T23:30:04.794Z,46.74
2023-01-30T23:32:09.527Z,46.93
2023-01-30T23:34:17.376Z,47.07
2023-01-30T23:36:22.023Z,47.07
2023-01-30T23:38:29.361Z,46.82
2023-01-30T23:40:33.959Z,46.77
2023-01-30T23:42:38.842Z,46.96
2023-01-30T23:44:43.637Z,46.69
2023-01-30T23:46:48.288Z,46.74
2023-01-30T23:48:55.039Z,46.76
2023-01-30T23:50:59.660Z,46.95
2023-01-30T23:53:04.428Z,46.56
2023-01-30T23:55:12.713Z,46.73
2023-01-30T23:57:17.605Z,46.70
2023-01-30T23:59:22.444Z,46.81
